Time;durP1;ratioP1;P1;durP2;ratioP2;P2;SDS_P1;SDS_P2;PMS_P1;PMS_P2;Temp;Humidity;BMP_temperature;BMP_pressure;BME280_temperature;BME280_humidity;BME280_pressure;Samples;Min_cycle;Max_cycle;Signal;HPM_P1;HPM_P2
2022/03/11 00:00:18;;;;;;;11.60;8.10;;;;;;;6.47;38.46;100306.66;1088320;54;20022;-80
2022/03/11 00:01:22;;;;;;;11.35;6.97;;;;;;;6.53;38.17;100300.88;1088280;54;20027;-79
2022/03/11 00:02:24;;;;;;;10.68;7.40;;;;;;;6.56;38.14;100301.50;1088315;54;20034;-80
2022/03/11 00:03:30;;;;;;;11.70;7.57;;;;;;;6.55;38.36;100301.63;1088350;54;20022;-79
2022/03/11 00:04:31;;;;;;;12.80;7.38;;;;;;;6.56;38.46;100295.34;1089892;47;20030;-80
2022/03/11 00:05:38;;;;;;;13.15;8.65;;;;;;;6.44;39.55;100291.81;1088268;54;20082;-79
2022/03/11 00:06:40;;;;;;;14.45;8.50;;;;;;;6.36;39.32;100295.00;1088168;54;20042;-79
2022/03/11 00:07:44;;;;;;;13.80;7.95;;;;;;;6.39;39.43;100294.78;1088188;54;20090;-79
2022/03/11 00:08:45;;;;;;;12.35;8.25;;;;;;;6.36;39.51;100292.34;1088126;54;20034;-79
2022/03/11 00:09:50;;;;;;;11.70;7.82;;;;;;;6.30;40.06;100300.78;1088009;54;20035;-79
2022/03/11 00:10:51;;;;;;;12.30;7.90;;;;;;;6.31;39.91;100294.50;1088346;39;20892;-78
2022/03/11 00:11:57;;;;;;;14.10;8.05;;;;;;;6.28;40.19;100297.38;1088247;54;20662;-80
2022/03/11 00:12:59;;;;;;;17.38;9.20;;;;;;;6.17;40.50;100300.81;1088264;54;20025;-80
2022/03/11 00:14:03;;;;;;;14.93;9.25;;;;;;;6.03;41.24;100307.09;1088225;54;20030;-80
2022/03/11 00:15:06;;;;;;;16.55;9.20;;;;;;;6.04;40.98;100306.16;1088306;54;20087;-79
2022/03/11 00:16:12;;;;;;;13.85;8.25;;;;;;;6.03;40.78;100296.50;1088282;54;20042;-78
2022/03/11 00:17:14;;;;;;;12.63;7.93;;;;;;;6.04;40.89;100303.50;1094853;39;20632;-80
2022/03/11 00:18:18;;;;;;;14.77;9.18;;;;;;;5.97;41.38;100299.53;1088310;54;20034;-80
2022/03/11 00:19:20;;;;;;;15.88;9.25;;;;;;;5.93;41.47;100303.38;1088271;54;20018;-80
2022/03/11 00:20:25;;;;;;;13.45;9.23;;;;;;;5.84;41.94;100304.84;1088294;54;20034;-79
2022/03/11 00:21:29;;;;;;;15.02;9.70;;;;;;;5.82;42.10;100306.75;1088263;54;20741;-80
2022/03/11 00:22:34;;;;;;;16.73;8.70;;;;;;;5.77;42.05;100300.94;1088193;54;20038;-80
2022/03/11 00:23:38;;;;;;;15.90;9.10;;;;;;;5.76;41.95;100297.44;1088163;54;20031;-79
2022/03/11 00:24:40;;;;;;;13.98;8.48;;;;;;;5.72;42.15;100298.63;1088218;54;20033;-79
2022/03/11 00:25:44;;;;;;;15.57;8.45;;;;;;;5.70;42.35;100305.00;1088205;54;20030;-79
2022/03/11 00:26:48;;;;;;;15.68;9.10;;;;;;;5.70;42.47;100307.66;1091969;39;20643;-80
2022/03/11 00:27:54;;;;;;;15.50;9.98;;;;;;;5.70;42.45;100305.00;1088234;54;20079;-82
2022/03/11 00:28:55;;;;;;;14.48;8.88;;;;;;;5.65;42.63;100300.00;1088457;54;20019;-81
2022/03/11 00:30:14;;;;;;;13.73;9.23;;;;;;;5.65;42.89;100294.69;1091725;47;20011;-82
2022/03/11 00:31:16;;;;;;;15.52;9.32;;;;;;;5.66;42.46;100300.84;1093593;47;20038;-80
2022/03/11 00:32:20;;;;;;;15.40;9.48;;;;;;;5.68;42.57;100293.63;1091730;47;20757;-82
2022/03/11 00:33:22;;;;;;;13.55;9.02;;;;;;;5.70;42.29;100297.03;1095507;47;20035;-81
2022/03/11 00:34:38;;;;;;;13.55;8.60;;;;;;;5.74;42.30;100294.06;1088246;54;20034;-79
2022/03/11 00:35:40;;;;;;;12.88;8.38;;;;;;;5.73;42.37;100295.00;1088288;54;20038;-81
2022/03/11 00:36:49;;;;;;;15.25;9.13;;;;;;;5.76;42.47;100291.28;1088293;54;20030;-81
2022/03/11 00:37:51;;;;;;;14.80;9.00;;;;;;;5.74;42.32;100298.50;1089795;39;20642;-79
2022/03/11 00:38:55;;;;;;;12.77;8.60;;;;;;;5.74;42.31;100295.84;1090527;47;20011;-82
2022/03/11 00:39:57;;;;;;;13.02;8.45;;;;;;;5.78;42.21;100295.53;1088277;54;20022;-80
2022/03/11 00:41:09;;;;;;;12.90;8.90;;;;;;;5.79;42.46;100293.75;1088258;54;20026;-80
2022/03/11 00:42:13;;;;;;;12.75;8.20;;;;;;;5.81;42.16;100298.91;1089732;39;20662;-80
2022/03/11 00:43:17;;;;;;;11.85;8.38;;;;;;;5.84;42.35;100296.06;1095233;39;20628;-82
2022/03/11 00:44:29;;;;;;;14.85;9.07;;;;;;;5.83;42.49;100297.03;1090461;31;20773;-78
2022/03/11 00:45:35;;;;;;;14.93;8.88;;;;;;;5.87;42.21;100295.81;1088265;54;20034;-80
2022/03/11 00:46:44;;;;;;;13.73;9.15;;;;;;;5.86;42.34;100297.66;1089868;47;20030;-79
2022/03/11 00:47:49;;;;;;;12.98;9.18;;;;;;;5.85;42.34;100293.28;1092290;47;20026;-79
2022/03/11 00:48:51;;;;;;;13.88;8.88;;;;;;;5.84;42.06;100293.41;1088262;54;20027;-78
2022/03/11 00:49:55;;;;;;;11.82;8.18;;;;;;;5.90;41.86;100299.09;1095981;47;20021;-80
2022/03/11 00:51:01;;;;;;;10.57;7.78;;;;;;;5.97;41.71;100291.56;1088289;54;20035;-78
2022/03/11 00:52:06;;;;;;;13.10;8.25;;;;;;;6.04;41.42;100290.22;1088250;54;20023;-80
2022/03/11 00:53:10;;;;;;;11.68;7.88;;;;;;;6.06;41.37;100293.59;1088344;47;20766;-79
2022/03/11 00:54:13;;;;;;;11.68;7.85;;;;;;;6.03;41.91;100288.53;1088460;54;20015;-80
2022/03/11 00:55:18;;;;;;;13.32;8.10;;;;;;;6.00;41.99;100290.56;1088596;54;20037;-81
2022/03/11 00:56:20;;;;;;;13.25;8.50;;;;;;;5.97;42.24;100298.69;1088350;54;20007;-81
2022/03/11 00:57:24;;;;;;;13.05;8.75;;;;;;;5.93;42.17;100296.25;1089628;46;20050;-81
2022/03/11 00:58:39;;;;;;;12.20;8.60;;;;;;;5.88;42.49;100289.56;1088650;54;20042;-81
2022/03/11 00:59:41;;;;;;;15.75;8.43;;;;;;;5.87;42.65;100287.88;1088507;54;20046;-81
2022/03/11 01:00:45;;;;;;;11.85;8.45;;;;;;;5.86;42.65;100292.34;1088386;54;20034;-82
2022/03/11 01:01:58;;;;;;;12.48;8.88;;;;;;;5.87;42.72;100294.03;1092535;39;20690;-81
2022/03/11 01:03:00;;;;;;;12.48;9.05;;;;;;;5.87;42.61;100286.09;1088477;54;20037;-79
2022/03/11 01:04:07;;;;;;;15.15;9.73;;;;;;;5.83;42.83;100286.41;1088442;54;20026;-82
2022/03/11 01:05:10;;;;;;;14.88;9.52;;;;;;;5.75;42.94;100285.16;1088461;54;20074;-81
2022/03/11 01:06:18;;;;;;;13.57;8.52;;;;;;;5.74;42.97;100287.88;1088442;54;20018;-79
2022/03/11 01:07:22;;;;;;;13.48;8.57;;;;;;;5.75;43.21;100285.16;1088561;54;20038;-79
2022/03/11 01:08:28;;;;;;;13.77;8.95;;;;;;;5.77;43.18;100288.50;1088616;54;20022;-80
2022/03/11 01:09:31;;;;;;;14.55;9.38;;;;;;;5.73;43.07;100287.06;1088683;54;20047;-80
2022/03/11 01:10:36;;;;;;;12.85;8.88;;;;;;;5.75;43.03;100287.81;1088691;54;20026;-79
2022/03/11 01:11:38;;;;;;;12.48;9.00;;;;;;;5.81;42.80;100283.00;1088614;54;20075;-79
2022/03/11 01:12:42;;;;;;;12.25;8.73;;;;;;;5.77;42.92;100288.50;1093656;39;20682;-81
2022/03/11 01:13:44;;;;;;;16.10;8.82;;;;;;;5.82;42.88;100282.88;1088550;54;20023;-81
2022/03/11 01:14:50;;;;;;;13.60;9.25;;;;;;;5.85;42.90;100285.34;1088595;54;20014;-78
2022/03/11 01:15:52;;;;;;;11.52;8.15;;;;;;;5.85;42.73;100281.84;1088619;54;20054;-80
2022/03/11 01:17:22;;;;;;;12.55;8.65;;;;;;;5.83;43.36;100286.41;1088781;54;20010;-80
2022/03/11 01:18:24;;;;;;;10.73;7.55;;;;;;;5.83;42.99;100281.94;1092732;39;20677;-80
2022/03/11 01:19:29;;;;;;;13.50;9.02;;;;;;;5.82;43.24;100274.94;1088696;54;20026;-81
2022/03/11 01:20:58;;;;;;;11.77;8.25;;;;;;;5.77;43.24;100279.72;1088778;54;20773;-80
2022/03/11 01:22:03;;;;;;;13.85;9.20;;;;;;;5.75;43.17;100282.50;1088737;54;20729;-79
2022/03/11 01:23:08;;;;;;;13.85;9.27;;;;;;;5.75;43.63;100277.19;1088753;54;20038;-79
2022/03/11 01:24:13;;;;;;;13.82;10.18;;;;;;;5.69;43.58;100276.75;1088571;54;20030;-80
2022/03/11 01:27:02;;;;;;;13.95;9.60;;;;;;;5.62;43.85;100277.16;1088823;54;20074;-81
2022/03/11 01:28:25;;;;;;;14.57;9.90;;;;;;;5.62;44.00;100273.69;1088792;54;20019;-80
2022/03/11 01:29:27;;;;;;;14.98;10.20;;;;;;;5.62;43.99;100274.53;1088715;54;20014;-82
2022/03/11 01:30:33;;;;;;;14.65;9.77;;;;;;;5.67;43.72;100276.03;1088547;54;20026;-80
2022/03/11 01:31:37;;;;;;;14.10;9.20;;;;;;;5.68;43.73;100272.41;1088634;54;20022;-80
2022/03/11 01:32:43;;;;;;;13.57;9.00;;;;;;;5.65;43.85;100273.47;1088596;54;20018;-79
2022/03/11 01:33:47;;;;;;;13.93;9.25;;;;;;;5.64;43.95;100266.47;1100387;39;20606;-80
2022/03/11 01:34:57;;;;;;;13.65;9.20;;;;;;;5.69;43.59;100264.34;1088573;54;20030;-79
2022/03/11 01:36:04;;;;;;;13.05;9.25;;;;;;;5.67;43.96;100268.91;1088488;54;20026;-80
2022/03/11 01:37:12;;;;;;;14.10;10.00;;;;;;;5.66;43.87;100275.19;1088620;54;20030;-80
2022/03/11 01:38:22;;;;;;;14.00;9.35;;;;;;;5.58;44.22;100269.53;1088477;54;20666;-81
2022/03/11 01:39:31;;;;;;;14.13;9.75;;;;;;;5.53;44.49;100271.69;1088549;54;20061;-79
2022/03/11 01:40:33;;;;;;;13.68;9.65;;;;;;;5.54;44.38;100274.22;1088605;54;20027;-79
2022/03/11 01:41:48;;;;;;;16.90;10.13;;;;;;;5.49;44.71;100273.69;1089925;46;20019;-80
2022/03/11 01:42:51;;;;;;;14.57;10.30;;;;;;;5.46;44.65;100272.13;1090884;46;20038;-78
2022/03/11 01:44:01;;;;;;;14.77;10.02;;;;;;;5.47;44.78;100276.47;1088722;54;20029;-82
2022/03/11 01:45:03;;;;;;;;;;;;;;;5.33;45.48;100273.91;1088908;54;20042;-80
2022/03/11 01:46:20;;;;;;;14.63;9.77;;;;;;;5.39;44.91;100268.16;1088661;54;19938;-78
2022/03/11 01:47:33;;;;;;;15.18;10.63;;;;;;;5.40;45.08;100269.03;1088763;54;20026;-80
2022/03/11 01:48:40;;;;;;;16.67;10.93;;;;;;;5.36;45.46;100268.41;1088734;54;20021;-82
2022/03/11 01:49:44;;;;;;;16.17;11.20;;;;;;;5.32;45.52;100261.59;1088733;54;20030;-81
2022/03/11 01:51:12;;;;;;;14.68;9.90;;;;;;;5.25;45.76;100266.47;1088713;54;20019;-81
2022/03/11 01:52:17;;;;;;;16.48;10.60;;;;;;;5.26;45.38;100265.50;1088740;54;20031;-80
2022/03/11 01:53:27;;;;;;;17.48;10.80;;;;;;;5.23;45.49;100272.84;1088749;54;20047;-80
2022/03/11 01:54:32;;;;;;;15.63;10.35;;;;;;;5.23;45.42;100262.22;1088588;54;20025;-81
2022/03/11 01:55:54;;;;;;;16.70;10.88;;;;;;;5.19;46.02;100271.38;1093831;46;20026;-82
2022/03/11 01:56:56;;;;;;;15.65;10.63;;;;;;;5.19;45.59;100274.00;1088121;54;20031;-79
2022/03/11 01:58:08;;;;;;;16.35;10.95;;;;;;;5.19;45.63;100277.50;1088466;54;20030;-79
2022/03/11 01:59:26;;;;;;;15.90;10.80;;;;;;;5.17;45.89;100268.78;1088662;54;20074;-80
2022/03/11 02:00:34;;;;;;;16.38;11.02;;;;;;;5.17;45.84;100283.88;1088653;54;20025;-78
2022/03/11 02:23:57;;;;;;;18.42;12.80;;;;;;;5.05;46.57;100259.88;1087903;54;20026;-81
2022/03/11 02:24:59;;;;;;;18.35;11.75;;;;;;;5.04;46.51;100258.19;1088588;54;20068;-82
2022/03/11 02:26:12;;;;;;;16.33;11.60;;;;;;;5.05;46.58;100267.84;1088617;54;20026;-83
2022/03/11 02:27:13;;;;;;;15.27;11.00;;;;;;;5.06;46.30;100260.72;1090553;46;20018;-80
2022/03/11 02:28:22;;;;;;;17.85;12.20;;;;;;;5.04;46.79;100260.84;1088600;54;20014;-81
2022/03/11 02:29:24;;;;;;;17.95;12.27;;;;;;;5.02;46.64;100268.03;1088625;54;20029;-80
2022/03/11 02:30:34;;;;;;;18.55;12.73;;;;;;;4.97;47.00;100267.50;1088579;54;20019;-80
2022/03/11 02:31:39;;;;;;;18.33;12.93;;;;;;;4.93;46.89;100260.69;1091585;39;20618;-81
2022/03/11 02:32:55;;;;;;;21.42;14.25;;;;;;;4.88;47.23;100268.13;1099287;39;20658;-80
2022/03/11 02:33:57;;;;;;;18.05;13.50;;;;;;;4.86;47.22;100259.41;1088556;54;20035;-83
2022/03/11 02:35:18;;;;;;;19.38;14.18;;;;;;;4.74;47.92;100264.59;1088640;54;20034;-81
2022/03/11 02:36:20;;;;;;;18.75;13.07;;;;;;;4.77;47.83;100272.34;1088577;54;20030;-81
2022/03/11 02:37:24;;;;;;;20.13;14.00;;;;;;;4.74;47.81;100277.81;1088653;54;20015;-79
2022/03/11 02:38:27;;;;;;;23.30;14.75;;;;;;;4.72;48.10;100258.56;1088618;54;20029;-81
2022/03/11 02:39:37;;;;;;;18.30;13.73;;;;;;;4.65;48.14;100267.84;1088541;54;20034;-80
2022/03/11 02:40:39;;;;;;;21.10;13.88;;;;;;;4.64;47.99;100264.34;1088544;54;20026;-81
2022/03/11 02:41:47;;;;;;;18.92;14.65;;;;;;;4.63;48.37;100270.59;1088577;54;20026;-82
2022/03/11 02:42:51;;;;;;;20.95;15.00;;;;;;;4.60;48.32;100262.00;1088492;54;20086;-80
2022/03/11 02:43:56;;;;;;;19.15;13.95;;;;;;;4.58;48.31;100266.56;1088479;54;20033;-80
2022/03/11 02:45:08;;;;;;;21.27;14.38;;;;;;;4.53;48.66;100265.03;1088563;54;20065;-80
2022/03/11 02:46:14;;;;;;;21.48;14.60;;;;;;;4.53;48.51;100265.03;1091342;46;20041;-82
2022/03/11 02:47:16;;;;;;;22.40;15.07;;;;;;;4.51;48.54;100261.66;1088390;54;20774;-79
2022/03/11 02:48:20;;;;;;;25.48;15.23;;;;;;;4.48;48.63;100261.84;1088399;54;20010;-82
2022/03/11 02:49:22;;;;;;;22.17;15.15;;;;;;;4.51;48.76;100251.09;1088496;54;20039;-81
2022/03/11 02:50:33;;;;;;;19.38;13.93;;;;;;;4.49;48.78;100252.09;1088588;54;20030;-80
2022/03/11 02:51:35;;;;;;;22.75;15.05;;;;;;;4.43;48.94;100253.38;1088553;54;20026;-81
2022/03/11 02:52:39;;;;;;;20.10;15.40;;;;;;;4.36;49.22;100252.06;1088486;54;20019;-81
2022/03/11 02:53:42;;;;;;;19.75;14.75;;;;;;;4.36;48.97;100258.22;1109990;39;20683;-78
2022/03/11 02:54:48;;;;;;;21.92;15.80;;;;;;;4.32;49.29;100255.88;1088376;54;20115;-81
2022/03/11 02:55:50;;;;;;;19.27;13.93;;;;;;;4.35;48.92;100260.94;1088405;54;20035;-80
2022/03/11 02:56:54;;;;;;;19.58;14.02;;;;;;;4.36;48.89;100257.34;1088443;54;20042;-81
2022/03/11 02:57:56;;;;;;;21.10;14.88;;;;;;;4.41;48.66;100251.75;1088372;54;20034;-79
2022/03/11 02:59:00;;;;;;;19.63;14.10;;;;;;;4.42;48.70;100254.31;1088316;54;20054;-80
2022/03/11 03:00:03;;;;;;;18.88;13.05;;;;;;;4.43;48.70;100255.16;1088439;54;20058;-80
2022/03/11 03:01:07;;;;;;;20.20;14.98;;;;;;;4.46;48.46;100260.28;1088445;54;20014;-80
2022/03/11 03:02:09;;;;;;;19.00;14.00;;;;;;;4.41;48.51;100263.22;1088477;54;20026;-80
2022/03/11 03:03:14;;;;;;;21.80;14.70;;;;;;;4.40;48.55;100266.81;1088434;54;20099;-79
2022/03/11 03:04:15;;;;;;;19.25;12.98;;;;;;;4.45;48.31;100258.56;1088236;46;20054;-80
2022/03/11 03:05:20;;;;;;;18.80;13.55;;;;;;;4.46;48.36;100263.75;1088342;54;20023;-79
2022/03/11 03:06:21;;;;;;;20.17;13.38;;;;;;;4.49;48.04;100252.97;1088411;54;20038;-80
2022/03/11 03:07:28;;;;;;;18.20;13.77;;;;;;;4.48;48.05;100266.31;1088478;54;20030;-81
2022/03/11 03:08:29;;;;;;;19.80;13.63;;;;;;;4.47;47.83;100264.63;1088490;54;20022;-79
2022/03/11 03:09:36;;;;;;;18.77;13.65;;;;;;;4.52;47.83;100252.78;1088454;54;20035;-82
2022/03/11 03:10:40;;;;;;;20.58;14.10;;;;;;;4.44;47.79;100255.06;1088488;54;20046;-80
2022/03/11 03:11:45;;;;;;;20.88;14.48;;;;;;;4.37;48.19;100254.63;1088407;54;20082;-82
2022/03/11 03:12:59;;;;;;;22.48;15.43;;;;;;;4.36;48.11;100258.22;1088616;54;20015;-82
2022/03/11 03:19:53;;;;;;;20.58;14.55;;;;;;;4.33;47.63;100262.88;1088474;54;20035;-79
2022/03/11 03:20:55;;;;;;;20.38;14.13;;;;;;;4.33;47.75;100261.06;1088319;54;20023;-79
2022/03/11 03:22:07;;;;;;;21.42;15.13;;;;;;;4.33;47.76;100261.06;1088457;54;20090;-79
2022/03/11 03:23:08;;;;;;;21.13;15.50;;;;;;;4.27;47.74;100263.25;1088396;54;20018;-77
2022/03/11 03:24:14;;;;;;;18.70;14.02;;;;;;;4.31;47.61;100264.75;1088413;54;20030;-80
2022/03/11 03:25:15;;;;;;;22.17;14.98;;;;;;;4.25;47.93;100265.16;1088499;54;20034;-77
2022/03/11 03:26:23;;;;;;;23.23;15.93;;;;;;;4.22;47.71;100258.25;1088386;54;20015;-78
2022/03/11 03:27:25;;;;;;;23.48;16.17;;;;;;;4.10;47.86;100259.06;1090530;46;20030;-79
2022/03/11 03:28:36;;;;;;;21.25;15.40;;;;;;;4.09;47.72;100258.19;1088537;54;20103;-80
2022/03/11 03:29:40;;;;;;;21.73;15.32;;;;;;;4.00;48.17;100261.41;1088514;54;20018;-79
2022/03/11 03:30:44;;;;;;;22.58;16.05;;;;;;;3.97;48.36;100257.19;1088481;54;20018;-79
2022/03/11 03:31:46;;;;;;;22.45;15.57;;;;;;;3.93;48.51;100254.81;1088393;54;20047;-80
2022/03/11 03:32:50;;;;;;;19.75;13.93;;;;;;;3.99;48.05;100249.13;1088436;54;20075;-79
2022/03/11 03:34:01;;;;;;;21.20;15.10;;;;;;;3.96;48.21;100252.00;1088558;54;20018;-77
2022/03/11 03:35:06;;;;;;;19.05;13.75;;;;;;;4.04;47.58;100253.19;1088493;54;20035;-78
2022/03/11 03:36:21;;;;;;;20.60;14.40;;;;;;;4.00;47.86;100249.06;1088474;54;20041;-79
2022/03/11 03:37:22;;;;;;;21.33;15.13;;;;;;;3.96;47.63;100244.91;1088288;54;20797;-79
2022/03/11 03:38:29;;;;;;;20.38;14.80;;;;;;;3.94;47.58;100246.78;1088386;54;20046;-79
2022/03/11 03:39:31;;;;;;;19.48;14.27;;;;;;;4.00;47.37;100253.47;1088508;54;20043;-79
2022/03/11 03:40:48;;;;;;;17.98;13.80;;;;;;;3.98;47.44;100242.13;1088494;54;20067;-80
2022/03/11 03:41:54;;;;;;;23.13;14.27;;;;;;;4.04;47.12;100244.41;1088580;54;20088;-78
2022/03/11 03:42:58;;;;;;;19.80;14.25;;;;;;;4.09;46.92;100244.97;1088480;54;20031;-79
2022/03/11 03:44:00;;;;;;;19.08;13.73;;;;;;;4.06;47.03;100250.47;1096138;46;20035;-79
2022/03/11 03:45:06;;;;;;;18.08;13.82;;;;;;;4.03;46.73;100240.91;1088458;54;20062;-78
2022/03/11 03:46:10;;;;;;;19.80;13.10;;;;;;;4.05;46.81;100243.47;1088478;54;20761;-80
2022/03/11 03:47:24;;;;;;;17.75;12.95;;;;;;;4.09;46.55;100238.84;1088452;54;20014;-81
2022/03/11 03:48:26;;;;;;;20.10;14.15;;;;;;;4.10;46.81;100243.19;1088515;54;20062;-80
2022/03/11 03:49:31;;;;;;;16.08;11.77;;;;;;;4.18;46.34;100244.38;1088453;54;20030;-81
2022/03/11 03:50:36;;;;;;;17.30;11.90;;;;;;;4.18;46.45;100244.38;1088442;54;20023;-80
2022/03/11 03:51:51;;;;;;;18.80;13.63;;;;;;;4.16;46.12;100246.25;1088428;54;20019;-79
2022/03/11 03:53:10;;;;;;;21.52;14.45;;;;;;;4.04;46.54;100253.19;1102444;39;20629;-80
2022/03/11 03:54:12;;;;;;;24.58;15.35;;;;;;;3.95;46.24;100248.47;1091214;47;20792;-79
2022/03/11 03:55:24;;;;;;;21.05;14.20;;;;;;;3.92;46.27;100247.84;1088369;54;20022;-80
2022/03/11 03:56:35;;;;;;;21.25;14.35;;;;;;;3.90;46.41;100246.13;1096016;39;20641;-81
2022/03/11 03:57:49;;;;;;;18.88;13.38;;;;;;;3.96;46.14;100249.34;1088431;54;20036;-80
2022/03/11 03:58:56;;;;;;;18.80;14.43;;;;;;;4.00;46.08;100250.84;1088420;54;20014;-82
2022/03/11 04:00:00;;;;;;;17.77;12.20;;;;;;;4.01;46.11;100239.31;1088380;54;20034;-80
2022/03/11 04:01:02;;;;;;;21.52;13.35;;;;;;;4.01;45.97;100247.25;1092404;39;20540;-81
2022/03/11 04:02:07;;;;;;;18.40;13.02;;;;;;;3.93;45.92;100242.44;1088343;54;20030;-80
2022/03/11 04:03:32;;;;;;;18.63;12.73;;;;;;;3.94;45.65;100244.13;1088501;54;20019;-82
2022/03/11 04:07:10;;;;;;;17.65;12.35;;;;;;;3.93;45.26;100244.25;1088089;54;20052;-81
2022/03/11 04:08:13;;;;;;;18.13;12.95;;;;;;;3.90;45.15;100235.56;1092640;47;20055;-80
2022/03/11 04:09:18;;;;;;;19.40;11.95;;;;;;;3.92;45.08;100232.78;1088152;54;20083;-80
2022/03/11 04:10:32;;;;;;;19.42;13.88;;;;;;;3.87;45.14;100235.72;1088258;54;20019;-81
2022/03/11 04:11:34;;;;;;;19.75;13.05;;;;;;;3.80;45.16;100234.44;1088240;54;20038;-80
2022/03/11 04:12:38;;;;;;;18.45;13.05;;;;;;;3.75;45.21;100231.25;1092247;47;20035;-81
2022/03/11 04:13:59;;;;;;;16.88;11.93;;;;;;;3.74;45.47;100230.38;1088249;54;20031;-80
2022/03/11 04:15:49;;;;;;;21.35;13.07;;;;;;;3.69;45.02;100235.13;1090542;47;20070;-78
2022/03/11 04:21:11;;;;;;;17.02;12.27;;;;;;;3.52;44.87;100241.44;1088229;54;20061;-81
2022/03/11 04:22:13;;;;;;;17.08;12.15;;;;;;;3.56;45.02;100242.97;1088308;54;20025;-79
2022/03/11 04:23:19;;;;;;;17.48;11.93;;;;;;;3.53;45.00;100237.84;1088216;54;20031;-80
2022/03/11 04:24:23;;;;;;;19.88;12.85;;;;;;;3.54;44.79;100239.56;1088224;54;20105;-79
2022/03/11 04:25:27;;;;;;;19.40;12.57;;;;;;;3.53;44.81;100235.22;1088159;54;20030;-80
2022/03/11 04:26:29;;;;;;;16.30;11.85;;;;;;;3.49;44.65;100244.28;1088148;54;20754;-79
2022/03/11 04:27:35;;;;;;;18.05;12.50;;;;;;;3.47;44.83;100235.59;1088054;54;20023;-78
2022/03/11 04:28:37;;;;;;;17.42;12.32;;;;;;;3.47;44.75;100235.59;1088823;46;20023;-78
2022/03/11 04:30:02;;;;;;;22.20;13.35;;;;;;;3.43;44.61;100232.31;1088581;54;20015;-81
2022/03/11 04:31:16;;;;;;;17.33;11.60;;;;;;;3.40;44.61;100245.69;1118721;39;20931;-80
2022/03/11 04:32:19;;;;;;;17.92;12.70;;;;;;;3.43;44.45;100242.00;1088611;54;20015;-81
2022/03/11 04:33:23;;;;;;;19.20;11.93;;;;;;;3.42;44.51;100242.94;1088474;54;20042;-79
2022/03/11 04:34:28;;;;;;;16.50;11.63;;;;;;;3.42;44.66;100242.94;1093102;39;20700;-81
2022/03/11 04:35:35;;;;;;;17.55;11.98;;;;;;;3.41;44.50;100238.59;1088511;54;20026;-79
2022/03/11 04:36:56;;;;;;;17.70;11.98;;;;;;;3.37;44.38;100237.09;1088482;54;20034;-80
2022/03/11 04:38:02;;;;;;;19.85;11.90;;;;;;;3.39;44.34;100251.09;1088568;54;20011;-79
2022/03/11 04:39:07;;;;;;;16.83;11.82;;;;;;;3.43;44.21;100242.00;1088547;54;20014;-78
2022/03/11 04:41:49;;;;;;;17.70;11.50;;;;;;;3.39;44.17;100240.50;1088633;39;20678;-80
2022/03/11 04:42:53;;;;;;;16.92;11.52;;;;;;;3.42;44.21;100235.03;1088570;54;20026;-79
2022/03/11 04:43:57;;;;;;;17.98;11.18;;;;;;;3.33;44.31;100236.44;1088511;54;20019;-79
2022/03/11 04:45:05;;;;;;;17.50;11.68;;;;;;;3.37;44.28;100242.41;1088394;54;20034;-80
2022/03/11 05:45:56;;;;;;;15.05;8.57;;;;;;;2.38;43.31;100271.91;1088123;54;20034;-80
2022/03/11 05:46:57;;;;;;;13.88;9.15;;;;;;;2.38;43.36;100279.81;1088295;54;20033;-79
2022/03/11 05:48:02;;;;;;;15.40;8.95;;;;;;;2.36;43.40;100277.28;1087845;54;20035;-80
2022/03/11 05:49:03;;;;;;;15.77;8.88;;;;;;;2.36;43.48;100281.72;1086449;54;20031;-79
2022/03/11 05:50:09;;;;;;;15.93;9.95;;;;;;;2.35;43.37;100275.59;1086420;54;20034;-79
2022/03/11 05:51:10;;;;;;;12.60;8.57;;;;;;;2.34;43.14;100280.03;1086094;54;20034;-79
2022/03/11 05:52:15;;;;;;;16.30;9.27;;;;;;;2.32;43.36;100276.63;1086781;39;20520;-79
2022/03/11 05:53:19;;;;;;;14.73;9.70;;;;;;;2.29;43.46;100268.03;1086112;54;20043;-80
2022/03/11 05:54:20;;;;;;;13.68;8.60;;;;;;;2.28;43.24;100276.88;1085696;54;20042;-80
2022/03/11 05:55:26;;;;;;;15.75;9.00;;;;;;;2.33;43.13;100273.03;1086283;39;20469;-78
2022/03/11 05:56:27;;;;;;;13.90;9.20;;;;;;;2.33;43.12;100270.41;1085766;54;20129;-79
2022/03/11 05:57:31;;;;;;;15.10;9.10;;;;;;;2.33;43.23;100270.41;1085965;54;20061;-80
2022/03/11 05:58:33;;;;;;;13.65;8.48;;;;;;;2.37;43.42;100270.22;1086107;54;20038;-78
2022/03/11 05:59:37;;;;;;;13.38;8.30;;;;;;;2.34;43.17;100265.97;1087826;39;20525;-78
2022/03/11 06:00:39;;;;;;;13.07;8.25;;;;;;;2.34;43.23;100264.19;1086311;54;20066;-78
2022/03/11 06:01:45;;;;;;;11.95;8.00;;;;;;;2.43;43.07;100262.81;1086745;54;20038;-79
2022/03/11 06:02:47;;;;;;;12.90;7.82;;;;;;;2.47;42.92;100266.13;1086691;54;20054;-80
2022/03/11 06:03:51;;;;;;;14.50;8.57;;;;;;;2.51;42.88;100267.66;1087658;54;20038;-78
2022/03/11 06:04:52;;;;;;;13.77;7.85;;;;;;;2.53;42.78;100264.91;1086656;54;20038;-78
2022/03/11 06:05:57;;;;;;;12.80;8.55;;;;;;;2.51;42.66;100270.28;1086548;54;20055;-81
2022/03/11 06:06:58;;;;;;;12.40;8.18;;;;;;;2.54;42.81;100269.25;1086570;54;20034;-79
2022/03/11 06:08:02;;;;;;;12.43;7.90;;;;;;;2.60;42.56;100266.25;1086677;54;20027;-79
2022/03/11 06:09:04;;;;;;;11.93;7.72;;;;;;;2.62;42.52;100267.91;1087099;39;20433;-78
2022/03/11 06:10:09;;;;;;;14.27;8.23;;;;;;;2.68;42.45;100271.09;1087013;54;20030;-79
2022/03/11 06:11:11;;;;;;;12.63;8.70;;;;;;;2.63;42.43;100266.97;1087216;54;20038;-80
2022/03/11 06:12:15;;;;;;;13.73;8.35;;;;;;;2.61;42.56;100266.19;1087064;54;20039;-79
2022/03/11 06:13:17;;;;;;;11.77;7.93;;;;;;;2.59;42.43;100265.41;1086487;54;20042;-80
2022/03/11 06:14:21;;;;;;;13.50;8.23;;;;;;;2.60;42.52;100274.19;1085786;54;20050;-79
2022/03/11 06:15:22;;;;;;;13.10;7.82;;;;;;;2.64;42.58;100271.31;1086403;54;20031;-79
2022/03/11 06:16:27;;;;;;;11.68;7.85;;;;;;;2.65;42.37;100267.69;1086586;54;20567;-78
2022/03/11 06:17:33;;;;;;;13.00;8.32;;;;;;;2.64;42.21;100267.78;1086547;54;20034;-78
2022/03/11 06:18:35;;;;;;;11.68;7.32;;;;;;;2.60;42.36;100267.13;1086338;54;20646;-79
2022/03/11 06:19:39;;;;;;;12.32;7.45;;;;;;;2.60;42.42;100267.13;1086415;54;20050;-78
2022/03/11 06:20:43;;;;;;;12.63;7.93;;;;;;;2.62;42.36;100261.75;1087201;46;20813;-79
2022/03/11 06:21:47;;;;;;;12.80;8.00;;;;;;;2.61;42.33;100257.41;1086067;54;20042;-78
2022/03/11 06:22:53;;;;;;;12.52;7.97;;;;;;;2.55;42.40;100266.53;1086438;54;20042;-79
2022/03/11 06:23:54;;;;;;;11.93;7.85;;;;;;;2.56;42.51;100265.59;1086242;54;20030;-79
2022/03/11 06:24:59;;;;;;;13.38;8.20;;;;;;;2.50;42.47;100263.31;1086311;54;20041;-79
2022/03/11 06:26:01;;;;;;;14.68;8.25;;;;;;;2.49;42.40;100264.25;1086733;46;20746;-79
2022/03/11 06:27:07;;;;;;;13.35;8.43;;;;;;;2.45;42.20;100260.94;1086170;54;20030;-78
2022/03/11 06:28:09;;;;;;;12.00;8.50;;;;;;;2.39;42.27;100270.97;1086129;54;20541;-79
2022/03/11 06:29:13;;;;;;;13.48;8.75;;;;;;;2.36;42.27;100266.72;1086667;54;20043;-78
2022/03/11 06:30:14;;;;;;;11.85;7.75;;;;;;;2.36;42.22;100265.91;1086013;54;20035;-78
2022/03/11 06:31:18;;;;;;;12.57;8.05;;;;;;;2.32;42.34;100262.56;1085791;54;20041;-78
2022/03/11 06:32:20;;;;;;;17.13;8.30;;;;;;;2.30;42.61;100262.66;1085807;54;20042;-79
2022/03/11 06:33:27;;;;;;;13.52;8.25;;;;;;;2.34;42.25;100264.19;1085797;54;20063;-79
2022/03/11 06:34:32;;;;;;;13.15;8.15;;;;;;;2.32;42.34;100266.06;1085632;54;20034;-78
2022/03/11 06:35:34;;;;;;;12.98;8.60;;;;;;;2.36;42.14;100277.28;1086362;39;20542;-78
2022/03/11 06:36:38;;;;;;;13.25;7.90;;;;;;;2.39;42.25;100278.91;1085722;54;20615;-80
2022/03/11 06:37:42;;;;;;;13.20;7.53;;;;;;;2.40;42.25;100272.69;1085725;54;20030;-78
2022/03/11 06:38:46;;;;;;;12.73;7.22;;;;;;;2.41;42.17;100272.59;1086425;39;20444;-79
2022/03/11 06:39:48;;;;;;;11.95;7.95;;;;;;;2.46;42.02;100270.56;1086092;54;20774;-78
2022/03/11 06:40:54;;;;;;;12.15;7.93;;;;;;;2.51;42.16;100272.94;1088553;39;20936;-79
2022/03/11 06:41:55;;;;;;;12.70;7.57;;;;;;;2.53;41.97;100268.44;1085717;54;20038;-79
2022/03/11 06:42:59;;;;;;;10.82;7.47;;;;;;;2.54;41.73;100269.25;1085932;54;20065;-78